sensor_id;sensor_type;location;lat;lon;timestamp;temperature;humidity
28552;DHT22;15752;49.560;8.708;2023-04-25T00:01:05;13.80;97.90
28552;DHT22;15752;49.560;8.708;2023-04-25T00:03:35;13.90;97.80
28552;DHT22;15752;49.560;8.708;2023-04-25T00:06:05;13.90;97.80
28552;DHT22;15752;49.560;8.708;2023-04-25T00:08:34;13.90;97.90
28552;DHT22;15752;49.560;8.708;2023-04-25T00:11:04;13.90;97.90
28552;DHT22;15752;49.560;8.708;2023-04-25T00:13:33;13.90;97.90
28552;DHT22;15752;49.560;8.708;2023-04-25T00:16:01;13.90;97.90
28552;DHT22;15752;49.560;8.708;2023-04-25T00:18:31;13.80;97.80
28552;DHT22;15752;49.560;8.708;2023-04-25T00:21:00;13.80;97.80
28552;DHT22;15752;49.560;8.708;2023-04-25T00:23:29;13.80;97.90
28552;DHT22;15752;49.560;8.708;2023-04-25T00:25:57;13.80;97.90
28552;DHT22;15752;49.560;8.708;2023-04-25T00:28:27;13.80;98.00
28552;DHT22;15752;49.560;8.708;2023-04-25T00:30:55;13.80;98.10
28552;DHT22;15752;49.560;8.708;2023-04-25T00:33:24;13.80;98.00
28552;DHT22;15752;49.560;8.708;2023-04-25T00:35:52;13.70;98.00
28552;DHT22;15752;49.560;8.708;2023-04-25T00:38:21;13.80;98.10
28552;DHT22;15752;49.560;8.708;2023-04-25T00:40:49;13.70;98.10
28552;DHT22;15752;49.560;8.708;2023-04-25T00:43:18;13.80;98.00
28552;DHT22;15752;49.560;8.708;2023-04-25T00:45:48;13.70;98.10
28552;DHT22;15752;49.560;8.708;2023-04-25T00:48:17;13.70;98.10
28552;DHT22;15752;49.560;8.708;2023-04-25T00:50:51;13.70;98.20
28552;DHT22;15752;49.560;8.708;2023-04-25T00:53:21;13.70;98.30
28552;DHT22;15752;49.560;8.708;2023-04-25T00:55:50;13.70;98.20
28552;DHT22;15752;49.560;8.708;2023-04-25T00:58:19;13.70;98.30
28552;DHT22;15752;49.560;8.708;2023-04-25T01:00:51;13.70;98.30
28552;DHT22;15752;49.560;8.708;2023-04-25T01:03:20;13.70;98.30
28552;DHT22;15752;49.560;8.708;2023-04-25T01:05:50;13.70;98.30
28552;DHT22;15752;49.560;8.708;2023-04-25T01:08:21;13.70;98.30
28552;DHT22;15752;49.560;8.708;2023-04-25T01:10:52;13.70;98.40
28552;DHT22;15752;49.560;8.708;2023-04-25T01:13:20;13.70;98.20
28552;DHT22;15752;49.560;8.708;2023-04-25T01:15:51;13.60;98.20
28552;DHT22;15752;49.560;8.708;2023-04-25T01:18:19;13.60;98.30
28552;DHT22;15752;49.560;8.708;2023-04-25T01:20:50;13.60;98.30
28552;DHT22;15752;49.560;8.708;2023-04-25T01:23:22;13.60;98.40
28552;DHT22;15752;49.560;8.708;2023-04-25T01:25:51;13.60;98.30
28552;DHT22;15752;49.560;8.708;2023-04-25T01:28:21;13.60;98.30
28552;DHT22;15752;49.560;8.708;2023-04-25T01:30:50;13.60;98.30
28552;DHT22;15752;49.560;8.708;2023-04-25T01:33:21;13.60;98.40
28552;DHT22;15752;49.560;8.708;2023-04-25T01:35:50;13.60;98.40
28552;DHT22;15752;49.560;8.708;2023-04-25T01:38:19;13.60;98.30
28552;DHT22;15752;49.560;8.708;2023-04-25T01:40:50;13.60;98.30
28552;DHT22;15752;49.560;8.708;2023-04-25T01:43:19;13.50;98.50
28552;DHT22;15752;49.560;8.708;2023-04-25T01:45:49;13.60;98.50
28552;DHT22;15752;49.560;8.708;2023-04-25T01:48:18;13.50;98.50
28552;DHT22;15752;49.560;8.708;2023-04-25T01:50:47;13.50;98.30
28552;DHT22;15752;49.560;8.708;2023-04-25T01:53:17;13.50;98.40
28552;DHT22;15752;49.560;8.708;2023-04-25T01:55:46;13.50;98.40
28552;DHT22;15752;49.560;8.708;2023-04-25T01:58:19;13.50;98.40
28552;DHT22;15752;49.560;8.708;2023-04-25T02:01:06;13.50;98.50
28552;DHT22;15752;49.560;8.708;2023-04-25T02:03:42;13.50;98.50
28552;DHT22;15752;49.560;8.708;2023-04-25T02:06:23;13.50;98.60
28552;DHT22;15752;49.560;8.708;2023-04-25T02:08:53;13.50;98.50
28552;DHT22;15752;49.560;8.708;2023-04-25T02:11:22;13.50;98.40
28552;DHT22;15752;49.560;8.708;2023-04-25T02:14:30;13.50;98.50
28552;DHT22;15752;49.560;8.708;2023-04-25T02:17:03;13.50;98.60
28552;DHT22;15752;49.560;8.708;2023-04-25T02:19:32;13.50;98.70
28552;DHT22;15752;49.560;8.708;2023-04-25T02:22:01;13.40;99.00
28552;DHT22;15752;49.560;8.708;2023-04-25T02:24:29;13.40;98.60
28552;DHT22;15752;49.560;8.708;2023-04-25T02:27:00;13.50;98.60
28552;DHT22;15752;49.560;8.708;2023-04-25T02:29:31;13.40;98.70
28552;DHT22;15752;49.560;8.708;2023-04-25T02:31:59;13.40;98.90
28552;DHT22;15752;49.560;8.708;2023-04-25T02:34:27;13.40;98.60
28552;DHT22;15752;49.560;8.708;2023-04-25T02:36:56;13.40;98.60
28552;DHT22;15752;49.560;8.708;2023-04-25T02:39:24;13.40;98.60
28552;DHT22;15752;49.560;8.708;2023-04-25T02:41:55;13.40;98.60
28552;DHT22;15752;49.560;8.708;2023-04-25T02:44:23;13.40;98.70
28552;DHT22;15752;49.560;8.708;2023-04-25T02:46:53;13.40;98.60
28552;DHT22;15752;49.560;8.708;2023-04-25T02:49:23;13.40;98.70
28552;DHT22;15752;49.560;8.708;2023-04-25T02:51:52;13.40;98.80
28552;DHT22;15752;49.560;8.708;2023-04-25T02:54:20;13.30;98.80
28552;DHT22;15752;49.560;8.708;2023-04-25T02:56:48;13.30;98.70
28552;DHT22;15752;49.560;8.708;2023-04-25T02:59:23;13.30;98.70
28552;DHT22;15752;49.560;8.708;2023-04-25T03:01:53;13.30;98.90
28552;DHT22;15752;49.560;8.708;2023-04-25T03:04:22;13.30;98.90
28552;DHT22;15752;49.560;8.708;2023-04-25T03:06:52;13.30;98.80
28552;DHT22;15752;49.560;8.708;2023-04-25T03:09:21;13.30;98.90
28552;DHT22;15752;49.560;8.708;2023-04-25T03:11:51;13.40;98.90
28552;DHT22;15752;49.560;8.708;2023-04-25T03:14:20;13.30;99.20
28552;DHT22;15752;49.560;8.708;2023-04-25T03:16:48;13.30;99.10
28552;DHT22;15752;49.560;8.708;2023-04-25T03:19:18;13.30;98.70
28552;DHT22;15752;49.560;8.708;2023-04-25T03:21:47;13.30;99.00
28552;DHT22;15752;49.560;8.708;2023-04-25T03:24:17;13.30;99.00
28552;DHT22;15752;49.560;8.708;2023-04-25T03:26:45;13.40;98.90
28552;DHT22;15752;49.560;8.708;2023-04-25T03:29:13;13.30;99.00
28552;DHT22;15752;49.560;8.708;2023-04-25T03:31:43;13.30;98.90
28552;DHT22;15752;49.560;8.708;2023-04-25T03:34:12;13.30;98.90
28552;DHT22;15752;49.560;8.708;2023-04-25T03:36:43;13.30;98.90
28552;DHT22;15752;49.560;8.708;2023-04-25T03:39:12;13.30;99.00
28552;DHT22;15752;49.560;8.708;2023-04-25T03:41:45;13.30;99.00
28552;DHT22;15752;49.560;8.708;2023-04-25T03:44:16;13.30;99.00
28552;DHT22;15752;49.560;8.708;2023-04-25T03:46:45;13.30;98.90
28552;DHT22;15752;49.560;8.708;2023-04-25T03:49:13;13.30;98.90
28552;DHT22;15752;49.560;8.708;2023-04-25T03:51:56;13.30;99.10
28552;DHT22;15752;49.560;8.708;2023-04-25T03:54:27;13.30;99.40
28552;DHT22;15752;49.560;8.708;2023-04-25T03:57:04;13.30;99.00
28552;DHT22;15752;49.560;8.708;2023-04-25T03:59:36;13.30;99.00
28552;DHT22;15752;49.560;8.708;2023-04-25T04:02:06;13.30;99.00
28552;DHT22;15752;49.560;8.708;2023-04-25T04:04:36;13.30;99.10
28552;DHT22;15752;49.560;8.708;2023-04-25T04:07:07;13.30;98.90
28552;DHT22;15752;49.560;8.708;2023-04-25T04:09:39;13.30;99.10
28552;DHT22;15752;49.560;8.708;2023-04-25T04:12:12;13.30;99.10
28552;DHT22;15752;49.560;8.708;2023-04-25T04:14:41;13.30;99.00
28552;DHT22;15752;49.560;8.708;2023-04-25T04:17:10;13.30;99.10
28552;DHT22;15752;49.560;8.708;2023-04-25T04:19:38;13.30;99.00
28552;DHT22;15752;49.560;8.708;2023-04-25T04:22:15;13.30;99.00
28552;DHT22;15752;49.560;8.708;2023-04-25T04:24:44;13.30;99.10
28552;DHT22;15752;49.560;8.708;2023-04-25T04:27:18;13.30;99.10
28552;DHT22;15752;49.560;8.708;2023-04-25T04:30:07;13.30;99.20
28552;DHT22;15752;49.560;8.708;2023-04-25T04:32:45;13.30;99.20
28552;DHT22;15752;49.560;8.708;2023-04-25T04:35:16;13.30;99.10
28552;DHT22;15752;49.560;8.708;2023-04-25T04:37:47;13.30;99.20
28552;DHT22;15752;49.560;8.708;2023-04-25T04:40:18;13.20;99.20
28552;DHT22;15752;49.560;8.708;2023-04-25T04:42:55;13.30;99.30
28552;DHT22;15752;49.560;8.708;2023-04-25T04:45:41;13.20;99.20
28552;DHT22;15752;49.560;8.708;2023-04-25T04:48:37;13.20;99.20
28552;DHT22;15752;49.560;8.708;2023-04-25T04:51:25;13.20;99.20
28552;DHT22;15752;49.560;8.708;2023-04-25T04:53:55;13.20;99.20
28552;DHT22;15752;49.560;8.708;2023-04-25T04:56:43;13.20;99.20
28552;DHT22;15752;49.560;8.708;2023-04-25T04:59:34;13.20;99.20
28552;DHT22;15752;49.560;8.708;2023-04-25T05:02:15;13.30;99.30
28552;DHT22;15752;49.560;8.708;2023-04-25T05:04:43;13.20;99.20
28552;DHT22;15752;49.560;8.708;2023-04-25T05:07:26;13.20;99.30
28552;DHT22;15752;49.560;8.708;2023-04-25T05:10:08;13.20;99.40
28552;DHT22;15752;49.560;8.708;2023-04-25T05:13:03;13.20;99.50
28552;DHT22;15752;49.560;8.708;2023-04-25T05:15:50;13.20;99.40
28552;DHT22;15752;49.560;8.708;2023-04-25T05:18:34;13.20;99.40
28552;DHT22;15752;49.560;8.708;2023-04-25T05:21:17;13.20;99.30
28552;DHT22;15752;49.560;8.708;2023-04-25T05:23:54;13.20;99.30
28552;DHT22;15752;49.560;8.708;2023-04-25T05:26:43;13.20;99.30
28552;DHT22;15752;49.560;8.708;2023-04-25T05:29:22;13.20;99.30
28552;DHT22;15752;49.560;8.708;2023-04-25T05:32:13;13.20;99.40
28552;DHT22;15752;49.560;8.708;2023-04-25T05:34:42;13.20;99.40
28552;DHT22;15752;49.560;8.708;2023-04-25T05:37:20;13.20;99.30
28552;DHT22;15752;49.560;8.708;2023-04-25T05:39:58;13.20;99.40
28552;DHT22;15752;49.560;8.708;2023-04-25T05:42:53;13.20;99.40
28552;DHT22;15752;49.560;8.708;2023-04-25T05:45:40;13.20;99.40
28552;DHT22;15752;49.560;8.708;2023-04-25T05:48:30;13.20;99.40
28552;DHT22;15752;49.560;8.708;2023-04-25T05:51:25;13.20;99.50
28552;DHT22;15752;49.560;8.708;2023-04-25T05:54:06;13.20;99.50
28552;DHT22;15752;49.560;8.708;2023-04-25T05:56:34;13.20;99.40
28552;DHT22;15752;49.560;8.708;2023-04-25T05:59:04;13.20;99.40
28552;DHT22;15752;49.560;8.708;2023-04-25T06:01:33;13.20;99.50
28552;DHT22;15752;49.560;8.708;2023-04-25T06:04:01;13.20;99.40
28552;DHT22;15752;49.560;8.708;2023-04-25T06:06:32;13.30;99.80
28552;DHT22;15752;49.560;8.708;2023-04-25T06:09:00;13.20;99.50
28552;DHT22;15752;49.560;8.708;2023-04-25T06:11:30;13.30;99.60
28552;DHT22;15752;49.560;8.708;2023-04-25T06:13:59;13.30;99.60
28552;DHT22;15752;49.560;8.708;2023-04-25T06:16:29;13.30;99.70
28552;DHT22;15752;49.560;8.708;2023-04-25T06:18:58;13.30;99.50
28552;DHT22;15752;49.560;8.708;2023-04-25T06:21:26;13.30;99.50
28552;DHT22;15752;49.560;8.708;2023-04-25T06:23:55;13.30;99.70
28552;DHT22;15752;49.560;8.708;2023-04-25T06:26:23;13.30;99.70
28552;DHT22;15752;49.560;8.708;2023-04-25T06:28:52;13.30;99.60
28552;DHT22;15752;49.560;8.708;2023-04-25T06:31:20;13.30;99.60
28552;DHT22;15752;49.560;8.708;2023-04-25T06:33:51;13.30;99.60
28552;DHT22;15752;49.560;8.708;2023-04-25T06:36:23;13.20;99.90
28552;DHT22;15752;49.560;8.708;2023-04-25T06:39:00;13.20;99.60
28552;DHT22;15752;49.560;8.708;2023-04-25T06:41:29;13.30;99.60
28552;DHT22;15752;49.560;8.708;2023-04-25T06:44:01;13.20;99.50
28552;DHT22;15752;49.560;8.708;2023-04-25T06:46:34;13.20;99.60
28552;DHT22;15752;49.560;8.708;2023-04-25T06:49:05;13.20;99.50
28552;DHT22;15752;49.560;8.708;2023-04-25T06:51:33;13.20;99.50
28552;DHT22;15752;49.560;8.708;2023-04-25T06:54:02;13.20;99.50
28552;DHT22;15752;49.560;8.708;2023-04-25T06:56:54;13.20;99.40
28552;DHT22;15752;49.560;8.708;2023-04-25T06:59:23;13.20;99.40
28552;DHT22;15752;49.560;8.708;2023-04-25T07:01:52;13.20;99.30
28552;DHT22;15752;49.560;8.708;2023-04-25T07:04:26;13.10;99.30
28552;DHT22;15752;49.560;8.708;2023-04-25T07:06:56;13.10;99.40
28552;DHT22;15752;49.560;8.708;2023-04-25T07:09:35;13.10;99.30
28552;DHT22;15752;49.560;8.708;2023-04-25T07:12:05;13.10;99.40
28552;DHT22;15752;49.560;8.708;2023-04-25T07:14:34;13.10;99.50
28552;DHT22;15752;49.560;8.708;2023-04-25T07:17:02;13.10;99.30
28552;DHT22;15752;49.560;8.708;2023-04-25T07:19:41;13.10;99.30
28552;DHT22;15752;49.560;8.708;2023-04-25T07:22:10;13.10;99.20
28552;DHT22;15752;49.560;8.708;2023-04-25T07:24:41;13.10;99.40
28552;DHT22;15752;49.560;8.708;2023-04-25T07:27:12;13.10;99.40
28552;DHT22;15752;49.560;8.708;2023-04-25T07:29:50;13.10;99.70
28552;DHT22;15752;49.560;8.708;2023-04-25T07:32:21;13.20;99.70
28552;DHT22;15752;49.560;8.708;2023-04-25T07:34:52;13.20;99.70
28552;DHT22;15752;49.560;8.708;2023-04-25T07:37:20;13.20;99.90
28552;DHT22;15752;49.560;8.708;2023-04-25T07:40:02;13.20;99.70
28552;DHT22;15752;49.560;8.708;2023-04-25T07:42:32;13.20;99.50
28552;DHT22;15752;49.560;8.708;2023-04-25T07:45:02;13.20;99.50
28552;DHT22;15752;49.560;8.708;2023-04-25T07:47:30;13.20;99.50
28552;DHT22;15752;49.560;8.708;2023-04-25T07:50:00;13.20;99.30
28552;DHT22;15752;49.560;8.708;2023-04-25T07:52:30;13.20;99.40
28552;DHT22;15752;49.560;8.708;2023-04-25T07:55:06;13.20;99.40
28552;DHT22;15752;49.560;8.708;2023-04-25T07:57:51;13.30;99.60
28552;DHT22;15752;49.560;8.708;2023-04-25T08:00:20;13.30;99.70
28552;DHT22;15752;49.560;8.708;2023-04-25T08:02:56;13.30;99.50
28552;DHT22;15752;49.560;8.708;2023-04-25T08:05:26;13.30;99.40
28552;DHT22;15752;49.560;8.708;2023-04-25T08:08:02;13.30;99.00
28552;DHT22;15752;49.560;8.708;2023-04-25T08:10:33;13.30;99.20
28552;DHT22;15752;49.560;8.708;2023-04-25T08:13:01;13.30;99.00
28552;DHT22;15752;49.560;8.708;2023-04-25T08:15:30;13.30;98.80
28552;DHT22;15752;49.560;8.708;2023-04-25T08:17:58;13.30;98.90
28552;DHT22;15752;49.560;8.708;2023-04-25T08:20:28;13.30;98.70
28552;DHT22;15752;49.560;8.708;2023-04-25T08:22:59;13.30;98.50
28552;DHT22;15752;49.560;8.708;2023-04-25T08:25:51;13.30;98.60
28552;DHT22;15752;49.560;8.708;2023-04-25T08:28:23;13.30;98.50
28552;DHT22;15752;49.560;8.708;2023-04-25T08:30:54;13.30;98.60
28552;DHT22;15752;49.560;8.708;2023-04-25T08:33:23;13.30;98.40
28552;DHT22;15752;49.560;8.708;2023-04-25T08:36:01;13.30;98.90
28552;DHT22;15752;49.560;8.708;2023-04-25T08:38:31;13.30;98.30
28552;DHT22;15752;49.560;8.708;2023-04-25T08:41:01;13.30;98.30
28552;DHT22;15752;49.560;8.708;2023-04-25T08:43:31;13.30;98.30
28552;DHT22;15752;49.560;8.708;2023-04-25T08:46:00;13.30;98.70
28552;DHT22;15752;49.560;8.708;2023-04-25T08:48:37;13.30;98.30
28552;DHT22;15752;49.560;8.708;2023-04-25T08:51:10;13.30;98.30
28552;DHT22;15752;49.560;8.708;2023-04-25T08:53:42;13.30;98.20
28552;DHT22;15752;49.560;8.708;2023-04-25T08:56:16;13.30;98.30
28552;DHT22;15752;49.560;8.708;2023-04-25T08:58:48;13.30;98.30
28552;DHT22;15752;49.560;8.708;2023-04-25T09:01:18;13.40;98.40
28552;DHT22;15752;49.560;8.708;2023-04-25T09:03:51;13.40;98.50
28552;DHT22;15752;49.560;8.708;2023-04-25T09:06:21;13.40;98.40
28552;DHT22;15752;49.560;8.708;2023-04-25T09:08:50;13.40;98.40
28552;DHT22;15752;49.560;8.708;2023-04-25T09:11:19;13.50;98.30
28552;DHT22;15752;49.560;8.708;2023-04-25T09:14:10;13.50;98.30
28552;DHT22;15752;49.560;8.708;2023-04-25T09:17:04;13.50;98.50
28552;DHT22;15752;49.560;8.708;2023-04-25T09:19:46;13.50;98.20
28552;DHT22;15752;49.560;8.708;2023-04-25T09:22:32;13.60;98.00
28552;DHT22;15752;49.560;8.708;2023-04-25T09:25:03;13.60;97.90
28552;DHT22;15752;49.560;8.708;2023-04-25T09:27:33;13.60;98.00
28552;DHT22;15752;49.560;8.708;2023-04-25T09:30:10;13.60;97.90
28552;DHT22;15752;49.560;8.708;2023-04-25T09:33:04;13.60;97.90
28552;DHT22;15752;49.560;8.708;2023-04-25T09:35:37;13.60;97.80
28552;DHT22;15752;49.560;8.708;2023-04-25T09:38:11;13.60;97.70
28552;DHT22;15752;49.560;8.708;2023-04-25T09:40:55;13.70;97.70
28552;DHT22;15752;49.560;8.708;2023-04-25T09:43:34;13.70;97.70
28552;DHT22;15752;49.560;8.708;2023-04-25T09:46:08;13.70;97.70
28552;DHT22;15752;49.560;8.708;2023-04-25T09:48:48;13.70;97.80
28552;DHT22;15752;49.560;8.708;2023-04-25T09:51:26;13.70;97.80
28552;DHT22;15752;49.560;8.708;2023-04-25T09:53:59;13.70;97.50
28552;DHT22;15752;49.560;8.708;2023-04-25T09:56:36;13.70;97.20
28552;DHT22;15752;49.560;8.708;2023-04-25T09:59:07;13.80;97.60
28552;DHT22;15752;49.560;8.708;2023-04-25T10:01:40;13.80;97.70
28552;DHT22;15752;49.560;8.708;2023-04-25T10:04:23;13.80;97.50
28552;DHT22;15752;49.560;8.708;2023-04-25T10:07:06;13.90;97.50
28552;DHT22;15752;49.560;8.708;2023-04-25T10:09:39;13.90;97.70
28552;DHT22;15752;49.560;8.708;2023-04-25T10:12:08;13.90;97.60
28552;DHT22;15752;49.560;8.708;2023-04-25T10:14:36;14.00;97.30
28552;DHT22;15752;49.560;8.708;2023-04-25T10:17:05;14.00;97.50
28552;DHT22;15752;49.560;8.708;2023-04-25T10:19:35;14.00;97.50
28552;DHT22;15752;49.560;8.708;2023-04-25T10:22:07;14.10;97.60
28552;DHT22;15752;49.560;8.708;2023-04-25T10:24:38;14.10;97.70
28552;DHT22;15752;49.560;8.708;2023-04-25T10:27:07;14.10;97.80
28552;DHT22;15752;49.560;8.708;2023-04-25T10:29:36;14.20;97.40
28552;DHT22;15752;49.560;8.708;2023-04-25T10:32:23;14.30;97.20
28552;DHT22;15752;49.560;8.708;2023-04-25T10:34:52;14.30;97.40
28552;DHT22;15752;49.560;8.708;2023-04-25T10:37:20;14.30;97.10
28552;DHT22;15752;49.560;8.708;2023-04-25T10:39:50;14.40;97.10
28552;DHT22;15752;49.560;8.708;2023-04-25T10:42:20;14.40;96.80
28552;DHT22;15752;49.560;8.708;2023-04-25T10:45:01;14.40;96.60
28552;DHT22;15752;49.560;8.708;2023-04-25T10:47:35;14.40;96.70
28552;DHT22;15752;49.560;8.708;2023-04-25T10:50:08;14.40;96.80
28552;DHT22;15752;49.560;8.708;2023-04-25T10:52:39;14.40;96.80
28552;DHT22;15752;49.560;8.708;2023-04-25T10:55:09;14.40;96.60
28552;DHT22;15752;49.560;8.708;2023-04-25T10:57:40;14.40;96.40
28552;DHT22;15752;49.560;8.708;2023-04-25T11:00:12;14.40;96.40
28552;DHT22;15752;49.560;8.708;2023-04-25T11:02:43;14.40;96.40
28552;DHT22;15752;49.560;8.708;2023-04-25T11:05:34;14.40;96.60
28552;DHT22;15752;49.560;8.708;2023-04-25T11:08:33;14.40;96.60
28552;DHT22;15752;49.560;8.708;2023-04-25T11:11:12;14.40;96.70
28552;DHT22;15752;49.560;8.708;2023-04-25T11:13:40;14.50;96.50
28552;DHT22;15752;49.560;8.708;2023-04-25T11:16:08;14.50;96.60
28552;DHT22;15752;49.560;8.708;2023-04-25T11:18:41;14.50;96.60
28552;DHT22;15752;49.560;8.708;2023-04-25T11:21:09;14.50;96.30
28552;DHT22;15752;49.560;8.708;2023-04-25T11:23:38;14.50;96.30
28552;DHT22;15752;49.560;8.708;2023-04-25T11:26:07;14.50;96.30
28552;DHT22;15752;49.560;8.708;2023-04-25T11:28:42;14.50;96.20
28552;DHT22;15752;49.560;8.708;2023-04-25T11:31:13;14.50;96.20
28552;DHT22;15752;49.560;8.708;2023-04-25T11:33:42;14.50;96.40
28552;DHT22;15752;49.560;8.708;2023-04-25T11:36:12;14.50;96.20
28552;DHT22;15752;49.560;8.708;2023-04-25T11:38:40;14.50;96.00
28552;DHT22;15752;49.560;8.708;2023-04-25T11:41:09;14.50;95.80
28552;DHT22;15752;49.560;8.708;2023-04-25T11:43:39;14.40;95.80
28552;DHT22;15752;49.560;8.708;2023-04-25T11:46:09;14.40;95.90
28552;DHT22;15752;49.560;8.708;2023-04-25T11:48:38;14.40;96.20
28552;DHT22;15752;49.560;8.708;2023-04-25T11:51:07;14.40;96.00
28552;DHT22;15752;49.560;8.708;2023-04-25T11:53:35;14.40;96.10
28552;DHT22;15752;49.560;8.708;2023-04-25T11:56:09;14.40;96.00
28552;DHT22;15752;49.560;8.708;2023-04-25T11:58:59;14.40;95.90
28552;DHT22;15752;49.560;8.708;2023-04-25T12:01:30;14.40;95.70
28552;DHT22;15752;49.560;8.708;2023-04-25T12:04:10;14.40;95.70
28552;DHT22;15752;49.560;8.708;2023-04-25T12:06:41;14.10;95.60
28552;DHT22;15752;49.560;8.708;2023-04-25T12:09:11;14.40;95.80
28552;DHT22;15752;49.560;8.708;2023-04-25T12:11:41;14.40;95.60
28552;DHT22;15752;49.560;8.708;2023-04-25T12:14:12;14.50;95.70
28552;DHT22;15752;49.560;8.708;2023-04-25T12:16:48;14.50;95.60
28552;DHT22;15752;49.560;8.708;2023-04-25T12:19:19;14.50;95.50
28552;DHT22;15752;49.560;8.708;2023-04-25T12:21:48;14.50;95.80
28552;DHT22;15752;49.560;8.708;2023-04-25T12:24:25;14.60;95.70
28552;DHT22;15752;49.560;8.708;2023-04-25T12:26:59;14.60;95.80
28552;DHT22;15752;49.560;8.708;2023-04-25T12:29:32;14.70;95.50
28552;DHT22;15752;49.560;8.708;2023-04-25T12:32:15;14.70;95.30
28552;DHT22;15752;49.560;8.708;2023-04-25T12:34:49;14.70;95.30
28552;DHT22;15752;49.560;8.708;2023-04-25T12:37:19;14.70;95.20
28552;DHT22;15752;49.560;8.708;2023-04-25T12:39:48;14.70;95.30
28552;DHT22;15752;49.560;8.708;2023-04-25T12:42:16;14.70;95.20
28552;DHT22;15752;49.560;8.708;2023-04-25T12:44:46;14.80;95.20
28552;DHT22;15752;49.560;8.708;2023-04-25T12:47:14;14.80;95.10
28552;DHT22;15752;49.560;8.708;2023-04-25T12:49:42;14.80;95.30
28552;DHT22;15752;49.560;8.708;2023-04-25T12:52:11;14.80;95.00
28552;DHT22;15752;49.560;8.708;2023-04-25T12:54:39;14.80;94.90
28552;DHT22;15752;49.560;8.708;2023-04-25T12:57:08;14.90;94.80
28552;DHT22;15752;49.560;8.708;2023-04-25T12:59:36;14.90;94.50
28552;DHT22;15752;49.560;8.708;2023-04-25T13:02:10;14.80;94.70
28552;DHT22;15752;49.560;8.708;2023-04-25T13:04:39;14.80;94.50
28552;DHT22;15752;49.560;8.708;2023-04-25T13:07:07;14.90;94.90
28552;DHT22;15752;49.560;8.708;2023-04-25T13:09:36;14.90;94.90
28552;DHT22;15752;49.560;8.708;2023-04-25T13:12:05;14.90;94.60
28552;DHT22;15752;49.560;8.708;2023-04-25T13:14:34;14.90;94.70
28552;DHT22;15752;49.560;8.708;2023-04-25T13:17:03;14.90;95.20
28552;DHT22;15752;49.560;8.708;2023-04-25T13:19:33;14.90;94.80
28552;DHT22;15752;49.560;8.708;2023-04-25T13:22:01;15.00;94.80
28552;DHT22;15752;49.560;8.708;2023-04-25T13:24:31;15.00;94.40
28552;DHT22;15752;49.560;8.708;2023-04-25T13:27:02;15.00;94.40
28552;DHT22;15752;49.560;8.708;2023-04-25T13:29:30;15.00;94.30
28552;DHT22;15752;49.560;8.708;2023-04-25T13:32:01;15.00;94.30
28552;DHT22;15752;49.560;8.708;2023-04-25T13:34:30;15.00;94.70
28552;DHT22;15752;49.560;8.708;2023-04-25T13:37:00;15.00;94.60
28552;DHT22;15752;49.560;8.708;2023-04-25T13:39:28;15.00;94.10
28552;DHT22;15752;49.560;8.708;2023-04-25T13:41:57;15.10;94.20
28552;DHT22;15752;49.560;8.708;2023-04-25T13:44:25;15.10;94.50
28552;DHT22;15752;49.560;8.708;2023-04-25T13:46:53;15.10;94.30
28552;DHT22;15752;49.560;8.708;2023-04-25T13:49:22;15.20;94.40
28552;DHT22;15752;49.560;8.708;2023-04-25T13:51:50;15.20;94.30
28552;DHT22;15752;49.560;8.708;2023-04-25T13:54:20;15.30;94.50
28552;DHT22;15752;49.560;8.708;2023-04-25T13:56:49;15.30;94.20
28552;DHT22;15752;49.560;8.708;2023-04-25T13:59:19;15.30;94.10
28552;DHT22;15752;49.560;8.708;2023-04-25T14:01:47;15.40;94.30
28552;DHT22;15752;49.560;8.708;2023-04-25T14:04:15;15.40;94.20
28552;DHT22;15752;49.560;8.708;2023-04-25T14:06:44;15.40;94.10
28552;DHT22;15752;49.560;8.708;2023-04-25T14:09:15;15.40;94.10
28552;DHT22;15752;49.560;8.708;2023-04-25T14:11:45;15.50;94.20
28552;DHT22;15752;49.560;8.708;2023-04-25T14:14:13;15.50;94.20
28552;DHT22;15752;49.560;8.708;2023-04-25T14:16:43;15.50;93.80
28552;DHT22;15752;49.560;8.708;2023-04-25T14:19:11;15.50;94.30
28552;DHT22;15752;49.560;8.708;2023-04-25T14:21:39;15.50;93.90
28552;DHT22;15752;49.560;8.708;2023-04-25T14:24:09;15.50;93.90
28552;DHT22;15752;49.560;8.708;2023-04-25T14:26:39;15.50;94.00
28552;DHT22;15752;49.560;8.708;2023-04-25T14:29:09;15.50;93.50
28552;DHT22;15752;49.560;8.708;2023-04-25T14:31:39;15.50;93.80
28552;DHT22;15752;49.560;8.708;2023-04-25T14:34:08;15.50;93.80
28552;DHT22;15752;49.560;8.708;2023-04-25T14:36:38;15.40;93.70
28552;DHT22;15752;49.560;8.708;2023-04-25T14:39:07;15.40;93.50
28552;DHT22;15752;49.560;8.708;2023-04-25T14:41:35;15.40;93.70
28552;DHT22;15752;49.560;8.708;2023-04-25T14:44:04;15.30;93.90
28552;DHT22;15752;49.560;8.708;2023-04-25T14:46:34;15.30;93.60
28552;DHT22;15752;49.560;8.708;2023-04-25T14:49:03;15.30;93.20
28552;DHT22;15752;49.560;8.708;2023-04-25T14:51:32;15.30;92.90
28552;DHT22;15752;49.560;8.708;2023-04-25T14:54:01;15.20;93.40
28552;DHT22;15752;49.560;8.708;2023-04-25T14:56:29;15.20;93.20
28552;DHT22;15752;49.560;8.708;2023-04-25T14:58:58;15.20;93.10
28552;DHT22;15752;49.560;8.708;2023-04-25T15:01:26;15.10;93.10
28552;DHT22;15752;49.560;8.708;2023-04-25T15:03:56;15.20;93.10
28552;DHT22;15752;49.560;8.708;2023-04-25T15:06:26;15.10;92.40
28552;DHT22;15752;49.560;8.708;2023-04-25T15:08:55;15.10;93.00
28552;DHT22;15752;49.560;8.708;2023-04-25T15:11:24;15.10;93.10
28552;DHT22;15752;49.560;8.708;2023-04-25T15:13:52;15.10;93.00
28552;DHT22;15752;49.560;8.708;2023-04-25T15:16:21;15.00;92.80
28552;DHT22;15752;49.560;8.708;2023-04-25T15:18:49;15.00;92.70
28552;DHT22;15752;49.560;8.708;2023-04-25T15:21:19;15.00;93.10
28552;DHT22;15752;49.560;8.708;2023-04-25T15:23:48;15.00;92.70
28552;DHT22;15752;49.560;8.708;2023-04-25T15:26:17;14.90;92.90
28552;DHT22;15752;49.560;8.708;2023-04-25T15:28:45;14.90;92.60
28552;DHT22;15752;49.560;8.708;2023-04-25T15:31:14;14.90;92.70
28552;DHT22;15752;49.560;8.708;2023-04-25T15:33:42;14.90;92.70
28552;DHT22;15752;49.560;8.708;2023-04-25T15:36:10;14.90;92.50
28552;DHT22;15752;49.560;8.708;2023-04-25T15:38:40;14.90;92.80
28552;DHT22;15752;49.560;8.708;2023-04-25T15:41:09;14.90;92.90
28552;DHT22;15752;49.560;8.708;2023-04-25T15:43:37;14.90;92.50
28552;DHT22;15752;49.560;8.708;2023-04-25T15:46:06;14.90;92.60
28552;DHT22;15752;49.560;8.708;2023-04-25T15:48:35;14.90;92.60
28552;DHT22;15752;49.560;8.708;2023-04-25T15:51:03;14.90;92.80
28552;DHT22;15752;49.560;8.708;2023-04-25T15:53:32;14.90;92.70
28552;DHT22;15752;49.560;8.708;2023-04-25T15:56:01;14.80;93.00
28552;DHT22;15752;49.560;8.708;2023-04-25T15:58:30;14.80;92.80
28552;DHT22;15752;49.560;8.708;2023-04-25T16:00:58;14.80;92.80